Time;durP1;ratioP1;P1;durP2;ratioP2;P2;SDS_P1;SDS_P2;PMS_P1;PMS_P2;Temp;Humidity;BMP_temperature;BMP_pressure;BME280_temperature;BME280_humidity;BME280_pressure;Samples;Min_cycle;Max_cycle;Signal;HPM_P1;HPM_P2
2022/02/03 00:01:25;;;;;;;8.73;3.97;;;8.70;99.90;;;;;;5015314;28;20030;-50
2022/02/03 00:03:59;;;;;;;10.98;4.05;;;8.70;99.90;;;;;;5015651;28;20034;-50
2022/02/03 00:06:46;;;;;;;7.55;3.42;;;8.70;99.90;;;;;;5015717;28;20033;-50
2022/02/03 00:21:58;;;;;;;4.03;2.38;;;8.60;99.90;;;;;;5015169;28;20029;-50
2022/02/03 00:28:03;;;;;;;5.40;2.30;;;8.60;99.90;;;;;;5014969;28;20034;-50
2022/02/03 00:48:10;;;;;;;4.85;2.30;;;8.50;99.90;;;;;;5014771;28;20025;-50
2022/02/03 00:50:07;;;;;;;7.65;2.10;;;8.50;99.90;;;;;;5003139;28;20442;-51
2022/02/03 00:52:37;;;;;;;9.95;2.55;;;8.50;99.90;;;;;;5014744;28;20065;-51
2022/02/03 00:55:04;;;;;;;8.50;2.40;;;8.50;99.90;;;;;;5015176;28;20077;-51
2022/02/03 00:57:36;;;;;;;11.65;2.47;;;8.50;99.90;;;;;;5014260;28;20059;-53
2022/02/03 01:00:04;;;;;;;5.90;2.40;;;8.50;99.90;;;;;;5014258;28;20069;-50
2022/02/03 01:02:32;;;;;;;9.88;2.25;;;8.50;99.90;;;;;;5014441;28;20034;-50
2022/02/03 01:05:02;;;;;;;10.30;2.00;;;8.50;99.90;;;;;;5014618;28;20474;-52
2022/02/03 01:07:34;;;;;;;8.80;2.00;;;8.50;99.90;;;;;;5013479;28;20545;-49
2022/02/03 01:10:17;;;;;;;4.72;1.80;;;8.50;99.90;;;;;;5014342;28;20029;-49
2022/02/03 01:34:36;;;;;;;6.43;2.28;;;8.50;99.90;;;;;;5014335;28;20328;-50
2022/02/03 01:45:24;;;;;;;8.27;2.35;;;8.50;99.90;;;;;;5014129;28;20388;-49
2022/02/03 01:48:19;;;;;;;6.07;2.05;;;8.50;99.90;;;;;;5013568;28;20466;-50
2022/02/03 01:53:32;;;;;;;7.38;2.28;;;8.40;99.90;;;;;;5013607;28;20505;-50
2022/02/03 01:56:06;;;;;;;5.50;2.22;;;8.40;99.90;;;;;;5012745;28;20458;-50
2022/02/03 01:58:47;;;;;;;9.02;2.50;;;8.40;99.90;;;;;;5013434;28;20032;-51
2022/02/03 02:01:28;;;;;;;7.85;2.20;;;8.40;99.90;;;;;;5013671;28;20376;-52
2022/02/03 02:04:02;;;;;;;6.88;2.38;;;8.40;99.90;;;;;;5013215;28;20033;-50
2022/02/03 02:06:51;;;;;;;7.95;2.38;;;8.40;99.90;;;;;;5013015;28;20092;-50
2022/02/03 02:09:56;;;;;;;6.53;2.20;;;8.40;99.90;;;;;;5013149;28;20030;-49
2022/02/03 02:12:52;;;;;;;7.13;2.00;;;8.40;99.90;;;;;;5013131;28;20411;-50
2022/02/03 02:37:53;;;;;;;11.55;3.05;;;8.40;99.90;;;;;;5012161;28;20080;-50
2022/02/03 02:43:33;;;;;;;10.20;3.95;;;8.40;99.90;;;;;;5012448;28;20108;-50
2022/02/03 02:46:06;;;;;;;10.90;4.15;;;8.40;99.90;;;;;;5012546;28;20022;-49
2022/02/03 02:48:53;;;;;;;14.43;4.68;;;8.40;99.90;;;;;;5012515;28;20022;-50
2022/02/03 02:51:26;;;;;;;11.15;4.55;;;8.40;99.90;;;;;;5012362;28;20038;-51
2022/02/03 03:00:10;;;;;;;10.95;5.60;;;8.40;99.90;;;;;;5012096;28;20049;-49
2022/02/03 03:38:18;;;;;;;12.98;6.95;;;8.30;99.90;;;;;;5011675;28;20096;-49
2022/02/03 03:40:49;;;;;;;10.52;6.60;;;8.30;99.90;;;;;;5011320;28;20531;-50
2022/02/03 03:43:37;;;;;;;13.70;6.90;;;8.30;99.90;;;;;;5012235;28;20022;-50
2022/02/03 03:46:07;;;;;;;13.02;6.78;;;8.30;99.90;;;;;;5012088;28;20029;-50
2022/02/03 03:48:59;;;;;;;10.18;6.85;;;8.30;99.90;;;;;;5011959;28;20026;-50
2022/02/03 03:51:31;;;;;;;11.85;7.07;;;8.30;99.90;;;;;;4990842;28;20514;-49
2022/02/03 03:54:06;;;;;;;14.45;7.68;;;8.30;99.90;;;;;;5011532;28;20024;-50
2022/02/03 03:56:52;;;;;;;11.77;7.28;;;8.20;99.90;;;;;;5011815;28;20030;-50
2022/02/03 04:00:02;;;;;;;14.63;7.60;;;8.30;99.90;;;;;;5011692;28;20057;-51
2022/02/03 04:36:29;;;;;;;17.05;8.63;;;8.20;99.90;;;;;;5015469;28;20090;-51
2022/02/03 04:38:17;;;;;;;15.55;7.80;;;8.20;99.90;;;;;;5012939;28;20037;-50
2022/02/03 04:41:26;;;;;;;12.63;8.25;;;8.20;99.90;;;;;;5014758;28;20022;-50
2022/02/03 05:08:43;;;;;;;20.90;10.15;;;8.10;99.90;;;;;;5009468;28;20033;-51
2022/02/03 05:11:39;;;;;;;17.33;10.05;;;8.10;99.90;;;;;;4953804;29;20059;-51
2022/02/03 05:50:53;;;;;;;13.45;8.15;;;8.00;99.90;;;;;;5013211;28;20579;-50
2022/02/03 06:03:48;;;;;;;13.52;7.35;;;8.00;99.90;;;;;;5013022;28;20033;-50
2022/02/03 06:06:31;;;;;;;15.15;8.32;;;8.00;99.90;;;;;;5013457;28;20550;-51
2022/02/03 06:09:25;;;;;;;19.27;10.20;;;8.00;99.90;;;;;;5013577;28;20034;-51
2022/02/03 06:14:26;;;;;;;15.55;9.68;;;8.00;99.90;;;;;;5013653;28;20045;-50
2022/02/03 06:27:25;;;;;;;14.32;8.63;;;8.00;99.90;;;;;;5012985;28;20061;-50
2022/02/03 06:27:42;;;;;;;15.55;8.32;;;7.90;99.90;;;;;;5012710;28;20045;-50
2022/02/03 06:30:09;;;;;;;12.70;8.40;;;7.90;99.90;;;;;;5012942;28;20042;-51
2022/02/03 06:32:39;;;;;;;16.08;8.25;;;7.90;99.90;;;;;;5012550;28;20269;-50
2022/02/03 06:35:06;;;;;;;17.50;8.13;;;7.90;99.90;;;;;;5013129;28;20030;-50
2022/02/03 06:37:32;;;;;;;11.35;7.35;;;7.90;99.90;;;;;;5012879;28;20025;-54
2022/02/03 06:39:58;;;;;;;12.57;7.13;;;8.00;99.90;;;;;;5012829;28;20415;-50
2022/02/03 06:42:25;;;;;;;16.58;7.65;;;7.90;99.90;;;;;;5012350;28;20030;-50
2022/02/03 06:44:55;;;;;;;12.18;6.65;;;7.90;99.90;;;;;;5014749;28;20038;-50
2022/02/03 06:47:36;;;;;;;14.90;7.43;;;7.90;99.90;;;;;;5020448;28;20387;-51
2022/02/03 06:50:28;;;;;;;12.52;6.40;;;8.00;99.90;;;;;;5015228;28;20384;-50
2022/02/03 06:55:21;;;;;;;19.50;6.68;;;8.00;99.90;;;;;;5031601;28;20041;-49
2022/02/03 06:58:05;;;;;;;10.60;5.78;;;7.90;99.90;;;;;;5015934;28;20022;-50
2022/02/03 07:00:41;;;;;;;12.27;5.00;;;7.90;99.90;;;;;;5020243;28;20033;-50
2022/02/03 07:03:14;;;;;;;11.88;5.53;;;7.90;99.90;;;;;;5020676;28;20058;-50
2022/02/03 07:05:40;;;;;;;16.42;5.20;;;7.90;99.90;;;;;;5012600;28;20034;-50
2022/02/03 07:08:11;;;;;;;11.98;5.13;;;7.90;99.90;;;;;;5019634;28;20113;-50
2022/02/03 07:10:36;;;;;;;17.10;6.40;;;7.90;99.90;;;;;;5015220;28;20113;-50
2022/02/03 07:13:02;;;;;;;11.10;5.47;;;7.90;99.90;;;;;;5016880;28;20120;-51
2022/02/03 07:15:28;;;;;;;14.77;5.07;;;7.90;99.90;;;;;;5017045;28;20029;-50
2022/02/03 07:17:57;;;;;;;13.45;5.10;;;7.90;99.90;;;;;;5025733;28;20111;-50
2022/02/03 07:20:25;;;;;;;13.52;4.45;;;7.90;99.90;;;;;;5023853;28;20022;-50
2022/02/03 07:22:50;;;;;;;12.40;4.57;;;7.90;99.90;;;;;;5011043;28;20048;-52
2022/02/03 07:25:16;;;;;;;14.63;4.88;;;7.90;99.90;;;;;;5014597;28;20050;-50
2022/02/03 07:27:45;;;;;;;11.90;4.57;;;7.90;99.90;;;;;;5016786;28;20096;-50
2022/02/03 07:30:12;;;;;;;9.73;4.75;;;8.00;99.90;;;;;;5019460;28;20133;-49
2022/02/03 07:32:38;;;;;;;17.65;5.20;;;8.00;99.90;;;;;;5015674;28;20462;-50
2022/02/03 07:35:04;;;;;;;9.93;4.40;;;8.00;99.90;;;;;;5015918;28;20033;-51
2022/02/03 07:37:30;;;;;;;13.50;4.82;;;7.90;99.90;;;;;;5017981;28;20029;-50
2022/02/03 07:39:58;;;;;;;12.10;4.30;;;7.90;99.90;;;;;;5013914;28;20048;-50
2022/02/03 07:42:24;;;;;;;12.85;5.55;;;7.90;99.90;;;;;;5014844;28;20025;-50
2022/02/03 07:44:50;;;;;;;16.10;5.82;;;7.90;99.90;;;;;;5018569;28;20021;-50
2022/02/03 07:47:16;;;;;;;12.15;5.53;;;7.90;99.90;;;;;;5017601;28;20033;-51
2022/02/03 07:49:42;;;;;;;10.18;4.60;;;7.90;99.90;;;;;;5018412;28;20045;-53
2022/02/03 07:52:07;;;;;;;14.65;6.00;;;7.90;99.90;;;;;;5014380;28;20026;-51
2022/02/03 07:54:34;;;;;;;13.43;4.95;;;7.90;99.90;;;;;;5015922;28;20373;-50
2022/02/03 07:57:01;;;;;;;17.58;5.75;;;7.90;99.90;;;;;;5026709;28;20021;-51
2022/02/03 07:59:28;;;;;;;17.13;5.72;;;7.90;99.90;;;;;;5022262;28;20470;-50
2022/02/03 08:01:54;;;;;;;13.13;4.63;;;7.90;99.90;;;;;;5021506;28;20026;-50
2022/02/03 08:04:24;;;;;;;10.20;5.75;;;7.90;99.90;;;;;;5017556;28;20028;-49
2022/02/03 08:06:50;;;;;;;10.85;4.82;;;7.90;99.90;;;;;;5018108;28;20080;-50
2022/02/03 08:09:23;;;;;;;15.63;5.95;;;7.90;99.90;;;;;;5019372;28;20025;-50
2022/02/03 08:11:51;;;;;;;14.73;5.45;;;7.90;99.90;;;;;;5020336;28;20045;-49
2022/02/03 08:14:21;;;;;;;8.77;3.95;;;8.20;99.90;;;;;;5017077;28;20038;-50
2022/02/03 08:16:52;;;;;;;17.02;5.57;;;8.30;99.90;;;;;;5020121;28;20033;-51
2022/02/03 08:19:39;;;;;;;14.70;5.85;;;8.30;99.90;;;;;;5022781;28;20049;-51
2022/02/03 08:22:32;;;;;;;14.43;4.97;;;8.40;99.90;;;;;;5019932;28;20075;-51
2022/02/03 08:32:47;;;;;;;9.50;4.22;;;8.20;99.90;;;;;;5023151;28;20149;-50
2022/02/03 08:35:33;;;;;;;15.18;4.82;;;8.30;99.90;;;;;;5017447;28;20034;-49
2022/02/03 08:38:07;;;;;;;12.32;5.22;;;8.20;99.90;;;;;;5020282;28;20018;-50
2022/02/03 08:43:18;;;;;;;10.10;4.75;;;8.20;99.90;;;;;;5023283;28;20414;-51
2022/02/03 08:45:44;;;;;;;14.75;4.97;;;8.30;99.90;;;;;;5024097;28;20025;-50
2022/02/03 08:48:11;;;;;;;10.52;4.50;;;8.40;99.90;;;;;;5028684;28;20112;-50
2022/02/03 08:50:37;;;;;;;10.55;4.47;;;8.40;99.90;;;;;;5019973;28;20041;-51
2022/02/03 08:53:09;;;;;;;12.98;5.60;;;8.40;99.90;;;;;;5028623;28;20099;-50
2022/02/03 09:52:20;;;;;;;16.40;6.57;;;7.90;99.90;;;;;;5019111;28;20466;-54
2022/02/03 09:57:32;;;;;;;12.48;5.65;;;7.90;99.90;;;;;;5013280;28;20384;-53
2022/02/03 10:00:25;;;;;;;13.75;5.82;;;7.90;99.90;;;;;;5012258;28;20172;-52
2022/02/03 10:03:09;;;;;;;12.60;5.85;;;8.00;99.90;;;;;;5016310;28;20029;-50
2022/02/03 10:05:41;;;;;;;11.57;5.50;;;7.90;99.90;;;;;;5016542;28;20041;-55
2022/02/03 10:08:18;;;;;;;;;;;8.00;99.90;;;;;;5023898;28;20049;-59
2022/02/03 10:10:44;;;;;;;14.63;5.82;;;8.00;99.90;;;;;;5019865;28;19909;-62
2022/02/03 10:13:18;;;;;;;12.80;5.22;;;8.00;99.90;;;;;;5014899;28;20058;-53
2022/02/03 10:15:44;;;;;;;13.48;5.90;;;8.10;99.90;;;;;;5016744;28;20040;-56
2022/02/03 10:18:27;;;;;;;14.43;5.88;;;8.10;99.90;;;;;;5020364;28;20034;-62
2022/02/03 10:20:56;;;;;;;14.32;5.82;;;8.10;99.90;;;;;;5017223;28;20033;-51
2022/02/03 10:23:24;;;;;;;14.93;5.22;;;8.10;99.90;;;;;;5022158;28;20033;-51
2022/02/03 10:25:54;;;;;;;13.27;5.90;;;8.20;99.90;;;;;;5018817;28;20695;-54
2022/02/03 10:28:20;;;;;;;13.85;5.10;;;8.20;99.90;;;;;;5017612;28;20029;-63
2022/02/03 10:30:49;;;;;;;14.48;5.20;;;8.20;99.90;;;;;;5019087;28;20050;-50
2022/02/03 10:33:16;;;;;;;13.10;5.93;;;8.30;99.90;;;;;;5018301;28;20479;-50
2022/02/03 10:35:51;;;;;;;18.35;6.03;;;8.50;99.90;;;;;;5016758;28;20022;-50
2022/02/03 11:12:56;;;;;;;21.38;4.93;;;8.50;99.90;;;;;;5019130;28;20064;-50
2022/02/03 11:15:24;;;;;;;19.50;5.10;;;8.50;99.90;;;;;;5015895;28;20029;-49
2022/02/03 11:17:52;;;;;;;7.50;3.35;;;8.50;99.90;;;;;;5013877;28;20053;-49
2022/02/03 11:20:21;;;;;;;17.35;4.80;;;8.50;99.90;;;;;;5018895;28;20503;-49
2022/02/03 11:41:38;;;;;;;20.00;5.78;;;8.70;99.90;;;;;;5014717;28;20545;-55
2022/02/03 11:52:58;;;;;;;10.75;4.93;;;8.50;99.90;;;;;;5014866;28;20058;-56
2022/02/03 11:56:11;;;;;;;12.15;5.65;;;8.60;99.90;;;;;;5015735;28;20778;-56
2022/02/03 12:24:10;;;;;;;15.95;5.93;;;8.30;99.90;;;;;;5010099;28;20040;-56
2022/02/03 12:27:30;;;;;;;19.27;6.72;;;8.30;99.90;;;;;;4991687;28;20116;-56
2022/02/03 12:29:29;;;;;;;12.85;5.65;;;8.20;99.90;;;;;;5004293;28;20042;-56
2022/02/03 12:37:19;;;;;;;10.90;5.70;;;8.30;99.90;;;;;;5017685;28;20025;-55
2022/02/03 12:45:18;;;;;;;13.35;5.93;;;8.00;99.90;;;;;;5020837;28;20037;-56
2022/02/03 12:47:48;;;;;;;14.15;7.15;;;8.10;99.90;;;;;;5022371;28;20033;-56
2022/02/03 12:50:16;;;;;;;17.27;7.00;;;8.10;99.90;;;;;;5022954;28;20036;-56
2022/02/03 12:52:44;;;;;;;14.40;6.53;;;8.00;99.90;;;;;;5021246;28;20161;-59
2022/02/03 12:55:19;;;;;;;15.15;6.22;;;8.10;99.90;;;;;;5017329;28;20041;-56
2022/02/03 12:57:48;;;;;;;17.70;8.13;;;8.10;99.90;;;;;;5019564;28;20110;-57
2022/02/03 13:00:27;;;;;;;18.10;7.07;;;8.10;99.90;;;;;;5022789;28;20163;-57
2022/02/03 13:02:54;;;;;;;15.80;7.50;;;8.10;99.90;;;;;;5018906;28;20112;-57
2022/02/03 13:05:22;;;;;;;21.85;7.75;;;8.10;99.90;;;;;;5012712;28;20025;-56
2022/02/03 13:07:51;;;;;;;16.17;8.25;;;8.00;99.90;;;;;;5013532;28;20028;-57
2022/02/03 13:10:21;;;;;;;14.38;7.72;;;7.90;99.90;;;;;;5012808;28;20038;-56
2022/02/03 13:12:55;;;;;;;19.40;8.38;;;7.80;99.90;;;;;;5012130;28;20555;-57
2022/02/03 13:15:29;;;;;;;20.80;8.48;;;7.80;99.90;;;;;;5017432;28;20028;-56
2022/02/03 13:17:59;;;;;;;26.67;9.20;;;7.90;99.90;;;;;;5016349;28;20510;-56
2022/02/03 13:20:36;;;;;;;20.27;9.32;;;7.90;99.90;;;;;;5019435;28;20582;-57
2022/02/03 13:23:07;;;;;;;19.42;9.73;;;7.90;99.90;;;;;;5022967;28;20029;-57
2022/02/03 13:29:02;;;;;;;18.80;10.45;;;7.90;99.90;;;;;;5019494;28;20117;-56
2022/02/03 13:31:18;;;;;;;16.40;9.82;;;8.10;99.90;;;;;;5009000;28;20054;-57
2022/02/03 13:33:56;;;;;;;20.25;9.50;;;8.20;99.90;;;;;;5014285;28;20999;-57
2022/02/03 13:36:30;;;;;;;21.58;9.98;;;8.20;99.90;;;;;;5016807;28;20085;-56
2022/02/03 13:41:32;;;;;;;16.17;9.77;;;8.10;99.90;;;;;;5013891;28;20048;-55
2022/02/03 13:44:07;;;;;;;21.00;9.55;;;8.20;99.90;;;;;;5010561;28;20064;-57
2022/02/03 13:46:38;;;;;;;17.60;9.07;;;8.10;99.90;;;;;;5026345;28;20083;-56
2022/02/03 13:49:16;;;;;;;27.73;12.32;;;8.00;99.90;;;;;;5008610;28;20040;-55
2022/02/03 13:51:44;;;;;;;20.65;11.20;;;8.00;99.90;;;;;;5014238;28;20112;-57
2022/02/03 13:54:51;;;;;;;22.88;11.32;;;8.00;99.90;;;;;;5016179;28;20021;-56
2022/02/03 14:20:03;;;;;;;30.20;16.17;;;7.70;99.90;;;;;;5013297;28;20108;-56
2022/02/03 14:22:17;;;;;;;32.53;16.58;;;7.70;99.90;;;;;;5019276;28;20398;-57
2022/02/03 14:27:30;;;;;;;28.85;15.60;;;7.70;99.90;;;;;;5016878;28;20552;-56
2022/02/03 14:30:03;;;;;;;24.90;15.63;;;7.70;99.90;;;;;;5017006;28;20049;-56
2022/02/03 14:32:37;;;;;;;23.90;15.57;;;7.70;99.90;;;;;;5021576;28;20029;-56
2022/02/03 14:35:06;;;;;;;28.27;15.75;;;7.70;99.90;;;;;;5018670;28;20025;-56
2022/02/03 14:37:45;;;;;;;26.42;15.18;;;7.70;99.90;;;;;;5024291;28;20053;-56
2022/02/03 14:40:24;;;;;;;25.42;14.80;;;7.70;99.90;;;;;;5018801;28;20021;-55
2022/02/03 14:42:50;;;;;;;29.08;15.43;;;7.70;99.90;;;;;;5015679;28;20500;-56
2022/02/03 14:45:18;;;;;;;25.33;15.40;;;7.70;99.90;;;;;;5013335;28;20029;-56
2022/02/03 14:47:43;;;;;;;27.20;16.20;;;7.70;99.90;;;;;;5018163;28;20044;-56
2022/02/03 14:50:11;;;;;;;31.25;22.38;;;7.70;99.90;;;;;;5013213;28;20025;-57
2022/02/03 14:58:12;;;;;;;26.52;16.83;;;7.80;99.90;;;;;;5017629;28;20080;-56
2022/02/03 15:00:37;;;;;;;25.75;17.08;;;7.80;99.90;;;;;;5019914;28;20444;-56
2022/02/03 15:03:03;;;;;;;26.25;16.95;;;7.90;99.90;;;;;;5020446;28;20030;-56
2022/02/03 15:05:35;;;;;;;24.90;17.35;;;7.90;99.90;;;;;;5039118;28;20482;-56
2022/02/03 15:08:06;;;;;;;23.48;15.75;;;7.90;99.90;;;;;;5013774;28;20040;-56
2022/02/03 15:10:50;;;;;;;25.60;16.38;;;8.00;99.90;;;;;;5020924;28;20084;-56
2022/02/03 15:15:41;;;;;;;24.27;16.50;;;8.00;99.90;;;;;;5033180;28;20057;-55
2022/02/03 15:18:10;;;;;;;25.83;15.48;;;7.90;99.90;;;;;;5020769;28;20127;-56
2022/02/03 15:20:37;;;;;;;27.80;16.38;;;7.80;99.90;;;;;;5023199;28;20688;-56
2022/02/03 15:23:04;;;;;;;21.10;14.88;;;7.90;99.90;;;;;;5021335;28;20013;-56
2022/02/03 15:25:30;;;;;;;26.10;15.90;;;7.90;99.90;;;;;;5030015;28;20026;-57
2022/02/03 15:27:57;;;;;;;24.42;15.18;;;7.90;99.90;;;;;;5039853;28;20021;-55
2022/02/03 15:30:24;;;;;;;25.63;16.67;;;7.90;99.90;;;;;;5036331;28;20094;-56
2022/02/03 15:32:50;;;;;;;26.83;18.70;;;7.80;99.90;;;;;;5030408;28;20032;-56
2022/02/03 15:35:25;;;;;;;27.08;17.58;;;7.90;99.90;;;;;;5029832;28;20163;-56
2022/02/03 15:37:53;;;;;;;25.95;17.65;;;7.90;99.90;;;;;;5033935;28;20044;-55
2022/02/03 15:40:22;;;;;;;26.80;16.05;;;7.90;99.90;;;;;;5033591;28;20433;-56
2022/02/03 15:43:11;;;;;;;25.60;16.90;;;7.90;99.90;;;;;;5035929;28;20458;-56
2022/02/03 15:45:43;;;;;;;26.20;17.48;;;7.80;99.90;;;;;;5023173;28;20026;-56
2022/02/03 15:48:34;;;;;;;27.17;16.50;;;7.80;99.90;;;;;;5038505;28;20426;-57
2022/02/03 16:18:12;;;;;;;25.38;17.05;;;7.80;99.90;;;;;;5041613;28;20113;-56
2022/02/03 16:20:49;;;;;;;30.52;20.45;;;7.80;99.90;;;;;;5027059;28;20475;-56
2022/02/03 16:50:40;;;;;;;32.33;21.38;;;7.70;99.90;;;;;;5013659;28;20029;-55
2022/02/03 16:53:06;;;;;;;33.40;20.92;;;7.70;99.90;;;;;;5014358;28;20384;-56
2022/02/03 16:55:35;;;;;;;33.53;21.02;;;7.60;99.90;;;;;;5014891;28;20018;-56
2022/02/03 16:58:05;;;;;;;33.92;21.65;;;7.50;99.90;;;;;;5016756;28;20622;-56
2022/02/03 17:00:30;;;;;;;33.65;21.95;;;7.50;99.90;;;;;;5016006;28;20033;-56
2022/02/03 17:02:56;;;;;;;32.22;22.98;;;7.50;99.90;;;;;;5014263;28;20025;-56
2022/02/03 17:05:22;;;;;;;35.50;22.05;;;7.50;99.90;;;;;;5014475;28;20032;-56
2022/02/03 17:07:48;;;;;;;36.75;22.70;;;7.40;99.90;;;;;;5014300;28;20030;-56
2022/02/03 17:10:14;;;;;;;33.67;20.65;;;7.40;99.90;;;;;;5014119;28;20030;-57
2022/02/03 17:12:39;;;;;;;36.50;22.60;;;7.40;99.90;;;;;;5014088;28;20026;-56
2022/02/03 17:15:06;;;;;;;35.47;22.75;;;7.40;99.90;;;;;;5014381;28;20061;-56
2022/02/03 17:17:32;;;;;;;32.00;21.48;;;7.40;99.90;;;;;;5014315;28;20021;-56
2022/02/03 17:19:58;;;;;;;31.48;19.83;;;7.40;99.90;;;;;;5014373;28;20103;-57
2022/02/03 17:22:31;;;;;;;35.63;21.80;;;7.40;99.90;;;;;;5014256;28;20029;-56
2022/02/03 17:27:50;;;;;;;31.80;21.40;;;7.40;99.90;;;;;;5014195;28;20434;-56
2022/02/03 17:30:20;;;;;;;33.85;22.25;;;7.40;99.90;;;;;;5013645;28;20073;-56
2022/02/03 17:55:22;;;;;;;33.75;20.75;;;7.40;99.90;;;;;;5013761;28;20064;-56
2022/02/03 18:08:28;;;;;;;34.22;23.15;;;7.50;99.90;;;;;;5013587;28;20061;-56
2022/02/03 18:10:48;;;;;;;33.20;22.08;;;7.40;99.90;;;;;;5013076;28;20038;-56
2022/02/03 18:45:46;;;;;;;38.10;24.30;;;7.60;99.90;;;;;;5012869;28;20105;-57
2022/02/03 18:51:28;;;;;;;41.13;24.80;;;7.50;99.90;;;;;;5012856;28;20045;-56
2022/02/03 19:26:05;;;;;;;34.72;21.63;;;7.30;99.90;;;;;;5012883;28;20034;-55
2022/02/03 20:08:52;;;;;;;31.88;19.98;;;7.60;99.90;;;;;;5016053;28;20026;-57
2022/02/03 20:11:19;;;;;;;34.03;21.60;;;7.60;99.90;;;;;;5015871;28;20097;-57
2022/02/03 20:13:47;;;;;;;28.90;19.25;;;7.60;99.90;;;;;;5016094;28;20391;-56
2022/02/03 20:16:16;;;;;;;34.30;21.90;;;7.50;99.90;;;;;;5014471;28;20345;-56
2022/02/03 20:18:42;;;;;;;32.17;19.85;;;7.60;99.90;;;;;;5015510;28;20036;-56
2022/02/03 20:21:08;;;;;;;36.63;20.35;;;7.60;99.90;;;;;;5014985;28;20104;-56
2022/02/03 20:23:39;;;;;;;30.65;19.23;;;7.60;99.90;;;;;;5015558;28;20034;-56
2022/02/03 20:26:05;;;;;;;33.85;20.73;;;7.60;99.90;;;;;;5015494;28;20044;-56
2022/02/03 20:28:31;;;;;;;32.22;20.08;;;7.60;99.90;;;;;;5015532;28;20030;-55
2022/02/03 20:30:56;;;;;;;34.30;22.13;;;7.60;99.90;;;;;;5015670;28;20042;-56
2022/02/03 20:33:23;;;;;;;32.42;20.35;;;7.60;99.90;;;;;;5022155;28;20029;-56
2022/02/03 20:35:49;;;;;;;36.75;21.92;;;7.60;99.90;;;;;;5023390;28;20037;-57
2022/02/03 20:38:15;;;;;;;38.97;22.27;;;7.50;99.90;;;;;;5015131;28;20029;-56
2022/02/03 20:40:42;;;;;;;34.25;20.73;;;7.60;99.90;;;;;;5014536;28;20026;-56
2022/02/03 20:43:08;;;;;;;35.38;22.10;;;7.60;99.90;;;;;;5014907;28;20029;-59
2022/02/03 20:45:34;;;;;;;36.40;21.42;;;7.60;99.90;;;;;;5014827;28;20399;-56
2022/02/03 20:48:00;;;;;;;38.97;23.55;;;7.60;99.90;;;;;;5015321;28;20029;-56
2022/02/03 20:50:25;;;;;;;35.90;21.05;;;7.60;99.90;;;;;;5014988;28;20037;-56
2022/02/03 20:52:51;;;;;;;38.08;21.55;;;7.60;99.90;;;;;;5014730;28;20025;-56
2022/02/03 20:55:17;;;;;;;40.25;23.45;;;7.60;99.90;;;;;;5014718;28;20026;-55
2022/02/03 20:57:43;;;;;;;40.88;23.10;;;7.60;99.90;;;;;;5014345;28;20022;-56
2022/02/03 21:02:58;;;;;;;38.13;21.63;;;7.60;99.90;;;;;;5013613;28;20034;-58
2022/02/03 21:05:24;;;;;;;42.17;22.65;;;7.60;99.90;;;;;;5012793;28;20034;-57
2022/02/03 21:07:51;;;;;;;37.10;22.13;;;7.60;99.90;;;;;;5014351;28;20080;-56
2022/02/03 21:10:23;;;;;;;44.03;24.85;;;7.60;99.90;;;;;;5014824;28;20368;-55
2022/02/03 21:12:48;;;;;;;36.97;21.75;;;7.60;99.90;;;;;;5013965;28;20113;-56
2022/02/03 21:15:23;;;;;;;38.47;23.00;;;7.60;99.90;;;;;;5014291;28;20068;-56
2022/02/03 21:17:49;;;;;;;36.00;21.70;;;7.60;99.90;;;;;;5015477;28;20580;-56
2022/02/03 21:20:17;;;;;;;38.33;22.77;;;7.60;99.90;;;;;;5014700;28;20391;-56
2022/02/03 21:22:43;;;;;;;36.88;19.65;;;7.60;99.90;;;;;;5014480;28;20317;-57
2022/02/03 21:27:49;;;;;;;37.90;22.50;;;7.60;99.90;;;;;;5013873;28;20061;-56
2022/02/03 21:30:18;;;;;;;39.75;22.63;;;7.60;99.90;;;;;;5012132;28;20088;-57
2022/02/03 21:32:44;;;;;;;35.15;21.42;;;7.60;99.90;;;;;;5013734;28;20450;-56
2022/02/03 21:35:10;;;;;;;36.95;22.80;;;7.60;99.90;;;;;;5013887;28;20041;-56
2022/02/03 21:37:38;;;;;;;33.13;21.25;;;7.60;99.90;;;;;;5013696;28;20044;-57
2022/02/03 21:40:06;;;;;;;36.72;21.80;;;7.70;99.90;;;;;;5013451;28;20021;-57
2022/02/03 21:42:32;;;;;;;32.78;18.88;;;7.70;99.90;;;;;;5013462;28;20057;-56
2022/02/03 21:44:57;;;;;;;34.47;19.50;;;7.70;99.90;;;;;;5013937;28;20034;-56
2022/02/03 21:47:23;;;;;;;34.00;19.52;;;7.70;99.90;;;;;;5012878;28;20034;-56
2022/02/03 21:49:49;;;;;;;34.95;22.13;;;7.70;99.90;;;;;;5012930;28;20034;-56
2022/02/03 21:52:20;;;;;;;31.75;19.83;;;7.70;99.90;;;;;;5012744;28;20504;-56
2022/02/03 21:54:46;;;;;;;35.00;20.40;;;7.70;99.90;;;;;;5013494;28;20522;-56
2022/02/03 21:57:12;;;;;;;33.83;20.83;;;7.70;99.90;;;;;;5013604;28;20026;-57
2022/02/03 21:59:38;;;;;;;33.65;20.00;;;7.70;99.90;;;;;;5012519;28;20033;-56
2022/02/03 22:02:06;;;;;;;32.20;18.90;;;7.70;99.90;;;;;;5013372;28;20025;-57
2022/02/03 22:04:32;;;;;;;31.25;19.55;;;7.60;99.90;;;;;;5013107;28;20030;-56
2022/02/03 22:06:57;;;;;;;30.30;18.58;;;7.60;99.90;;;;;;5013363;28;20029;-56
2022/02/03 22:09:23;;;;;;;31.17;18.65;;;7.70;99.90;;;;;;5012995;28;20032;-58
2022/02/03 22:11:49;;;;;;;31.60;19.48;;;7.70;99.90;;;;;;5012814;28;20030;-56
2022/02/03 22:14:14;;;;;;;32.22;20.80;;;7.70;99.90;;;;;;5012886;28;20434;-56
2022/02/03 22:16:40;;;;;;;32.53;18.80;;;7.70;99.90;;;;;;5012700;28;20431;-56
2022/02/03 22:19:06;;;;;;;31.42;19.00;;;7.70;99.90;;;;;;5012609;28;20034;-57
2022/02/03 22:26:57;;;;;;;26.43;17.50;;;7.80;99.90;;;;;;5013134;28;20037;-56
2022/02/03 22:50:15;;;;;;;31.02;18.98;;;7.80;99.90;;;;;;5012293;28;20080;-56
2022/02/03 22:52:42;;;;;;;32.25;19.45;;;7.80;99.90;;;;;;5011817;28;20022;-56
2022/02/03 22:55:09;;;;;;;30.15;17.65;;;7.80;99.90;;;;;;5012499;28;20046;-56
2022/02/03 22:57:35;;;;;;;31.15;17.75;;;7.70;99.90;;;;;;5011050;28;20104;-56
2022/02/03 23:00:20;;;;;;;34.05;18.60;;;7.70;99.90;;;;;;5012211;28;20551;-56
2022/02/03 23:02:46;;;;;;;25.85;15.52;;;7.70;99.90;;;;;;5012118;28;20022;-56
2022/02/03 23:05:13;;;;;;;28.10;16.20;;;7.70;99.90;;;;;;5012201;28;20368;-56
2022/02/03 23:10:19;;;;;;;26.95;17.20;;;7.80;99.90;;;;;;5012242;28;20037;-57
2022/02/03 23:18:21;;;;;;;23.00;15.40;;;7.80;99.90;;;;;;5012022;28;20030;-56
2022/02/03 23:21:11;;;;;;;22.90;15.23;;;7.80;99.90;;;;;;5012137;28;20025;-56
2022/02/03 23:23:32;;;;;;;22.33;14.68;;;7.90;99.90;;;;;;5011912;28;20114;-56
2022/02/03 23:25:59;;;;;;;22.77;14.88;;;7.90;99.90;;;;;;5011470;28;20458;-55
2022/02/03 23:28:30;;;;;;;22.25;15.05;;;7.90;99.90;;;;;;5011623;28;20479;-56
2022/02/03 23:30:57;;;;;;;22.25;13.52;;;7.90;99.90;;;;;;5011249;28;20124;-56
2022/02/03 23:33:23;;;;;;;21.80;14.45;;;7.90;99.90;;;;;;5012045;28;20053;-56
2022/02/03 23:35:49;;;;;;;22.42;12.85;;;7.80;99.90;;;;;;5011453;28;20030;-56
